Time;durP1;ratioP1;P1;durP2;ratioP2;P2;SDS_P1;SDS_P2;PMS_P1;PMS_P2;Temp;Humidity;BMP_temperature;BMP_pressure;BME280_temperature;BME280_humidity;BME280_pressure;Samples;Min_cycle;Max_cycle;Signal;HPM_P1;HPM_P2
2021/10/18 00:00:07;;;;;;;17.13;8.32;;;;;;;;;;5032562;28;20418;-54
2021/10/18 00:02:33;;;;;;;23.73;9.25;;;;;;;;;;5032896;28;20075;-53
2021/10/18 00:04:59;;;;;;;15.40;7.85;;;;;;;;;;5031664;28;20109;-53
2021/10/18 00:07:25;;;;;;;19.33;7.88;;;;;;;;;;5032309;28;20450;-54
2021/10/18 00:09:51;;;;;;;17.85;8.27;;;;;;;;;;5032228;28;20026;-53
2021/10/18 00:12:17;;;;;;;19.15;8.30;;;;;;;;;;5032765;28;20049;-54
2021/10/18 00:14:43;;;;;;;16.50;8.30;;;;;;;;;;5031568;28;20126;-54
2021/10/18 00:17:10;;;;;;;15.45;7.13;;;;;;;;;;5032078;28;20119;-54
2021/10/18 00:19:36;;;;;;;20.92;8.95;;;;;;;;;;5032013;28;20137;-53
2021/10/18 00:22:02;;;;;;;17.42;7.32;;;;;;;;;;5032347;28;20124;-54
2021/10/18 00:24:28;;;;;;;16.63;6.25;;;;;;;;;;5033289;28;20423;-53
2021/10/18 00:26:54;;;;;;;17.50;9.07;;;;;;;;;;5036140;28;20025;-53
2021/10/18 00:29:20;;;;;;;18.63;8.63;;;;;;;;;;5035824;28;20412;-54
2021/10/18 00:31:46;;;;;;;19.30;8.98;;;;;;;;;;5035935;28;20116;-53
2021/10/18 00:34:12;;;;;;;19.85;8.07;;;;;;;;;;5035036;28;20104;-54
2021/10/18 00:36:38;;;;;;;16.65;7.53;;;;;;;;;;5035731;28;20346;-54
2021/10/18 00:39:04;;;;;;;16.23;8.07;;;;;;;;;;5035718;28;20041;-54
2021/10/18 00:41:30;;;;;;;20.65;8.05;;;;;;;;;;5035666;28;20040;-53
2021/10/18 00:43:56;;;;;;;13.95;6.60;;;;;;;;;;5034944;28;20026;-53
2021/10/18 00:46:24;;;;;;;15.38;7.05;;;;;;;;;;5035920;28;20034;-53
2021/10/18 00:48:51;;;;;;;20.23;7.68;;;;;;;;;;5035100;28;20092;-54
2021/10/18 00:51:17;;;;;;;21.63;8.07;;;;;;;;;;5035382;28;20075;-53
2021/10/18 00:53:44;;;;;;;17.90;7.72;;;;;;;;;;5034461;28;20022;-53
2021/10/18 00:56:11;;;;;;;15.82;6.80;;;;;;;;;;5035848;28;20036;-54
2021/10/18 00:58:37;;;;;;;14.77;7.00;;;;;;;;;;5035676;28;20025;-53
2021/10/18 01:01:03;;;;;;;15.07;6.75;;;;;;;;;;5035517;28;20043;-54
2021/10/18 01:03:29;;;;;;;14.70;6.63;;;;;;;;;;5034537;28;20085;-54
2021/10/18 01:05:55;;;;;;;17.05;7.55;;;;;;;;;;5034878;28;20503;-54
2021/10/18 01:08:21;;;;;;;17.52;8.32;;;;;;;;;;5035629;28;20026;-54
2021/10/18 01:10:47;;;;;;;19.63;8.40;;;;;;;;;;5035072;28;20095;-54
2021/10/18 01:13:13;;;;;;;20.80;7.75;;;;;;;;;;5035029;28;20083;-53
2021/10/18 01:15:40;;;;;;;14.55;7.13;;;;;;;;;;5034338;28;20025;-53
2021/10/18 01:18:06;;;;;;;18.55;8.25;;;;;;;;;;5035074;28;20049;-53
2021/10/18 01:20:32;;;;;;;20.25;8.20;;;;;;;;;;5034501;28;20059;-53
2021/10/18 01:22:59;;;;;;;18.60;7.68;;;;;;;;;;5035398;28;20022;-53
2021/10/18 01:25:25;;;;;;;14.30;7.55;;;;;;;;;;5034393;28;20401;-53
2021/10/18 01:27:51;;;;;;;14.68;7.20;;;;;;;;;;5034590;28;20362;-54
2021/10/18 01:30:18;;;;;;;13.63;6.53;;;;;;;;;;5034808;28;20029;-53
2021/10/18 01:32:44;;;;;;;18.80;8.25;;;;;;;;;;5034450;28;20029;-55
2021/10/18 01:35:10;;;;;;;14.63;6.53;;;;;;;;;;5032519;28;20029;-54
2021/10/18 01:37:37;;;;;;;18.13;7.22;;;;;;;;;;5034811;28;20033;-54
2021/10/18 01:40:10;;;;;;;17.08;7.50;;;;;;;;;;5034368;28;20037;-54
2021/10/18 01:42:36;;;;;;;18.65;9.25;;;;;;;;;;5034268;28;20363;-53
2021/10/18 01:45:02;;;;;;;19.05;8.73;;;;;;;;;;5034010;28;20086;-53
2021/10/18 01:47:28;;;;;;;27.02;9.07;;;;;;;;;;5034103;28;20025;-53
2021/10/18 01:49:56;;;;;;;17.88;8.07;;;;;;;;;;5034643;28;20033;-53
2021/10/18 01:52:22;;;;;;;23.50;8.98;;;;;;;;;;5034443;28;20021;-54
2021/10/18 01:54:48;;;;;;;17.58;8.48;;;;;;;;;;5033549;28;20022;-53
2021/10/18 01:57:14;;;;;;;16.95;7.25;;;;;;;;;;5034745;28;20451;-53
2021/10/18 01:59:41;;;;;;;19.30;8.18;;;;;;;;;;5033762;28;20033;-53
2021/10/18 02:02:07;;;;;;;13.48;6.57;;;;;;;;;;5033841;28;20537;-53
2021/10/18 02:04:32;;;;;;;17.67;6.60;;;;;;;;;;5033507;28;20119;-53
2021/10/18 02:06:58;;;;;;;18.20;7.18;;;;;;;;;;5034067;28;20017;-53
2021/10/18 02:09:24;;;;;;;20.48;7.07;;;;;;;;;;5033665;28;20026;-54
2021/10/18 02:11:51;;;;;;;20.42;8.23;;;;;;;;;;5034009;28;20025;-53
2021/10/18 02:14:17;;;;;;;21.88;8.15;;;;;;;;;;5033317;28;20110;-53
2021/10/18 02:16:43;;;;;;;17.33;7.75;;;;;;;;;;5033375;28;20341;-54
2021/10/18 02:19:09;;;;;;;17.13;7.35;;;;;;;;;;5033861;28;20117;-54
2021/10/18 02:21:35;;;;;;;17.70;8.50;;;;;;;;;;5033577;28;20049;-53
2021/10/18 02:24:01;;;;;;;20.10;7.60;;;;;;;;;;5033538;28;20028;-54
2021/10/18 02:26:27;;;;;;;18.58;7.40;;;;;;;;;;5033191;28;20443;-54
2021/10/18 02:28:53;;;;;;;15.63;7.63;;;;;;;;;;5033592;28;20021;-54
2021/10/18 02:31:19;;;;;;;20.10;8.40;;;;;;;;;;5033082;28;20057;-54
2021/10/18 02:33:45;;;;;;;16.70;8.38;;;;;;;;;;5032805;28;20036;-54
2021/10/18 02:36:12;;;;;;;17.83;7.80;;;;;;;;;;5033383;28;20065;-54
2021/10/18 02:38:39;;;;;;;18.13;7.90;;;;;;;;;;5033930;28;20026;-54
2021/10/18 02:41:05;;;;;;;17.52;8.38;;;;;;;;;;5033155;28;20451;-54
2021/10/18 02:43:31;;;;;;;20.42;8.07;;;;;;;;;;5032949;28;20414;-54
2021/10/18 02:45:57;;;;;;;25.52;9.27;;;;;;;;;;5032521;28;20033;-53
2021/10/18 02:48:23;;;;;;;23.23;8.63;;;;;;;;;;5033376;28;20032;-54
2021/10/18 02:50:52;;;;;;;20.73;8.48;;;;;;;;;;5033402;28;20463;-53
2021/10/18 02:53:18;;;;;;;20.55;7.18;;;;;;;;;;5033319;28;20026;-53
2021/10/18 02:55:44;;;;;;;18.77;8.35;;;;;;;;;;5032286;28;20116;-54
2021/10/18 02:58:10;;;;;;;19.90;8.63;;;;;;;;;;5025789;28;20020;-54
2021/10/18 03:00:36;;;;;;;24.02;8.50;;;;;;;;;;5032987;28;20143;-53
2021/10/18 03:03:02;;;;;;;17.10;8.00;;;;;;;;;;5032936;28;20036;-54
2021/10/18 03:05:28;;;;;;;19.65;7.53;;;;;;;;;;5036952;28;20346;-53
2021/10/18 03:07:54;;;;;;;19.88;7.72;;;;;;;;;;5052865;28;20336;-54
2021/10/18 03:10:21;;;;;;;16.33;7.15;;;;;;;;;;5053235;28;20025;-53
2021/10/18 03:12:47;;;;;;;15.77;6.45;;;;;;;;;;5052739;28;20107;-54
2021/10/18 03:15:14;;;;;;;14.48;7.05;;;;;;;;;;5052260;28;20366;-53
2021/10/18 03:17:40;;;;;;;16.80;6.60;;;;;;;;;;5052385;28;20561;-54
2021/10/18 03:20:08;;;;;;;17.77;6.57;;;;;;;;;;5052381;28;20394;-54
2021/10/18 03:22:34;;;;;;;16.67;6.55;;;;;;;;;;5052904;28;20028;-53
2021/10/18 03:25:00;;;;;;;21.35;7.75;;;;;;;;;;5052086;28;20021;-53
2021/10/18 03:27:26;;;;;;;16.08;6.85;;;;;;;;;;5052752;28;20021;-54
2021/10/18 03:29:52;;;;;;;16.65;7.07;;;;;;;;;;5052669;28;20060;-53
2021/10/18 03:32:18;;;;;;;15.63;6.18;;;;;;;;;;5052804;28;20041;-53
2021/10/18 03:34:44;;;;;;;19.48;7.00;;;;;;;;;;5051323;28;20021;-54
2021/10/18 03:37:10;;;;;;;13.98;5.22;;;;;;;;;;5052666;28;20025;-53
2021/10/18 03:39:36;;;;;;;16.38;6.47;;;;;;;;;;5052831;28;20048;-54
2021/10/18 03:42:02;;;;;;;13.07;5.60;;;;;;;;;;5052144;28;20467;-53
2021/10/18 03:44:28;;;;;;;12.48;5.95;;;;;;;;;;5052248;28;20036;-53
2021/10/18 03:46:54;;;;;;;10.45;5.85;;;;;;;;;;5052836;28;20032;-53
2021/10/18 03:49:21;;;;;;;15.30;5.57;;;;;;;;;;5052331;28;20013;-54
2021/10/18 03:51:47;;;;;;;11.85;6.20;;;;;;;;;;5052591;28;20060;-53
2021/10/18 03:54:13;;;;;;;14.88;5.32;;;;;;;;;;5051955;28;20025;-53
2021/10/18 03:56:39;;;;;;;17.25;6.43;;;;;;;;;;5052511;28;20358;-54
2021/10/18 03:59:05;;;;;;;17.17;7.20;;;;;;;;;;5053708;28;20029;-53
2021/10/18 04:01:31;;;;;;;16.20;7.38;;;;;;;;;;5056735;28;20033;-53
2021/10/18 04:03:57;;;;;;;17.73;6.90;;;;;;;;;;5054985;28;20336;-54
2021/10/18 04:06:23;;;;;;;19.38;6.60;;;;;;;;;;5056292;28;20055;-53
2021/10/18 04:08:50;;;;;;;19.80;7.57;;;;;;;;;;5056053;28;20036;-53
2021/10/18 04:11:16;;;;;;;12.80;6.43;;;;;;;;;;5056582;28;20045;-53
2021/10/18 04:13:42;;;;;;;14.18;6.07;;;;;;;;;;5055072;28;20409;-53
2021/10/18 04:16:09;;;;;;;11.30;5.57;;;;;;;;;;5056258;28;20108;-53
2021/10/18 04:18:35;;;;;;;13.68;5.45;;;;;;;;;;5055399;28;20424;-54
2021/10/18 04:21:01;;;;;;;16.08;5.78;;;;;;;;;;5056170;28;20131;-53
2021/10/18 04:23:28;;;;;;;14.35;6.03;;;;;;;;;;5055689;28;20506;-54
2021/10/18 04:25:54;;;;;;;14.73;5.68;;;;;;;;;;5055920;28;20029;-54
2021/10/18 04:28:20;;;;;;;20.00;6.80;;;;;;;;;;5055700;28;20022;-54
2021/10/18 04:30:46;;;;;;;14.63;5.65;;;;;;;;;;5055605;28;20064;-53
2021/10/18 04:33:12;;;;;;;15.68;6.38;;;;;;;;;;5055666;28;20017;-53
2021/10/18 04:35:38;;;;;;;16.20;5.47;;;;;;;;;;5051579;28;20350;-54
2021/10/18 04:38:04;;;;;;;16.98;5.53;;;;;;;;;;5054738;28;20090;-54
2021/10/18 04:40:31;;;;;;;14.90;5.68;;;;;;;;;;5055811;28;20033;-53
2021/10/18 04:42:57;;;;;;;14.57;6.20;;;;;;;;;;5055346;28;20114;-54
2021/10/18 04:45:23;;;;;;;14.93;6.15;;;;;;;;;;5053158;28;20362;-53
2021/10/18 04:47:51;;;;;;;18.00;7.30;;;;;;;;;;5055432;28;20040;-54
2021/10/18 04:50:18;;;;;;;17.20;6.30;;;;;;;;;;5055111;28;20127;-54
2021/10/18 04:52:44;;;;;;;17.15;6.18;;;;;;;;;;5055002;28;20025;-54
2021/10/18 04:55:10;;;;;;;16.17;6.35;;;;;;;;;;5052407;28;20055;-54
2021/10/18 04:57:48;;;;;;;18.92;6.60;;;;;;;;;;5051925;28;20021;-54
2021/10/18 05:00:14;;;;;;;18.75;7.00;;;;;;;;;;5054919;28;20040;-54
2021/10/18 05:02:40;;;;;;;20.00;7.22;;;;;;;;;;5055394;28;20123;-53
2021/10/18 05:05:06;;;;;;;25.00;8.55;;;;;;;;;;5054285;28;20037;-53
2021/10/18 05:07:32;;;;;;;19.60;6.55;;;;;;;;;;5055290;28;20431;-53
2021/10/18 05:09:58;;;;;;;19.90;6.68;;;;;;;;;;5054881;28;20028;-54
2021/10/18 05:12:24;;;;;;;16.52;7.13;;;;;;;;;;5054816;28;20113;-54
2021/10/18 05:14:50;;;;;;;16.50;7.35;;;;;;;;;;5053852;28;20033;-53
2021/10/18 05:17:16;;;;;;;21.80;7.53;;;;;;;;;;5055018;28;20115;-53
2021/10/18 05:19:42;;;;;;;26.88;6.85;;;;;;;;;;5054602;28;20340;-54
2021/10/18 05:22:08;;;;;;;22.60;8.02;;;;;;;;;;5054864;28;20385;-53
2021/10/18 05:24:34;;;;;;;16.15;6.85;;;;;;;;;;5053801;28;20462;-54
2021/10/18 05:27:00;;;;;;;20.65;8.05;;;;;;;;;;5054778;28;20034;-53
2021/10/18 05:29:26;;;;;;;20.95;7.82;;;;;;;;;;5054649;28;20064;-54
2021/10/18 05:31:52;;;;;;;17.73;8.27;;;;;;;;;;5055085;28;20017;-54
2021/10/18 05:34:18;;;;;;;16.70;6.95;;;;;;;;;;5053712;28;20470;-54
2021/10/18 05:36:44;;;;;;;19.10;8.13;;;;;;;;;;5054567;28;20060;-54
2021/10/18 05:39:10;;;;;;;15.57;7.18;;;;;;;;;;5054649;28;20112;-54
2021/10/18 05:41:37;;;;;;;18.67;7.72;;;;;;;;;;5054536;28;20447;-53
2021/10/18 05:44:03;;;;;;;20.23;8.32;;;;;;;;;;5053668;28;20414;-52
2021/10/18 05:46:29;;;;;;;19.15;8.32;;;;;;;;;;5054124;28;20021;-53
2021/10/18 05:48:56;;;;;;;16.60;7.05;;;;;;;;;;5054476;28;20100;-52
2021/10/18 05:51:24;;;;;;;22.35;7.57;;;;;;;;;;5054107;28;20353;-52
2021/10/18 05:53:50;;;;;;;19.52;6.82;;;;;;;;;;5053176;28;20366;-52
2021/10/18 05:56:16;;;;;;;19.92;7.88;;;;;;;;;;5052461;28;20032;-53
2021/10/18 05:58:42;;;;;;;13.98;6.80;;;;;;;;;;5054393;28;20021;-52
2021/10/18 06:01:08;;;;;;;19.13;7.35;;;;;;;;;;5053731;28;20041;-53
2021/10/18 06:03:36;;;;;;;18.77;7.05;;;;;;;;;;5053807;28;20032;-52
2021/10/18 06:06:06;;;;;;;29.92;9.25;;;;;;;;;;5053806;28;20042;-53
2021/10/18 06:08:32;;;;;;;18.35;7.30;;;;;;;;;;5054313;28;20037;-52
2021/10/18 06:10:58;;;;;;;19.45;7.45;;;;;;;;;;5053808;28;20066;-52
2021/10/18 06:13:24;;;;;;;21.92;8.65;;;;;;;;;;5054076;28;20021;-52
2021/10/18 06:15:51;;;;;;;14.48;6.95;;;;;;;;;;5053103;28;20029;-52
2021/10/18 06:18:18;;;;;;;20.25;8.90;;;;;;;;;;5054076;28;20028;-52
2021/10/18 06:20:46;;;;;;;21.05;7.55;;;;;;;;;;5050961;28;20370;-52
2021/10/18 06:23:13;;;;;;;15.93;6.95;;;;;;;;;;5053272;28;20032;-52
2021/10/18 06:25:39;;;;;;;22.15;8.57;;;;;;;;;;5052617;28;20029;-52
2021/10/18 06:28:07;;;;;;;27.95;9.05;;;;;;;;;;5053557;28;20439;-52
2021/10/18 06:30:33;;;;;;;21.33;7.50;;;;;;;;;;5053566;28;20170;-51
2021/10/18 06:32:59;;;;;;;24.20;8.30;;;;;;;;;;5053021;28;20477;-52
2021/10/18 06:35:25;;;;;;;21.15;8.10;;;;;;;;;;5052868;28;20120;-52
2021/10/18 06:37:52;;;;;;;22.15;7.55;;;;;;;;;;5053519;28;20024;-52
2021/10/18 06:40:18;;;;;;;21.50;7.93;;;;;;;;;;5053607;28;20136;-52
2021/10/18 06:42:44;;;;;;;20.58;7.68;;;;;;;;;;5053528;28;20040;-52
2021/10/18 06:45:11;;;;;;;25.35;9.35;;;;;;;;;;5052431;28;20389;-52
2021/10/18 06:47:37;;;;;;;22.02;8.70;;;;;;;;;;5051295;28;20367;-52
2021/10/18 06:50:04;;;;;;;20.88;8.65;;;;;;;;;;5053296;28;20032;-52
2021/10/18 06:52:34;;;;;;;23.05;8.95;;;;;;;;;;5052653;28;20427;-52
2021/10/18 06:55:00;;;;;;;22.27;8.80;;;;;;;;;;5052738;28;20043;-52
2021/10/18 06:57:27;;;;;;;26.25;8.52;;;;;;;;;;5053316;28;20075;-52
2021/10/18 06:59:53;;;;;;;23.27;8.07;;;;;;;;;;5052918;28;20021;-52
2021/10/18 07:02:19;;;;;;;24.13;7.97;;;;;;;;;;5052488;28;20455;-52
2021/10/18 07:04:44;;;;;;;16.48;7.25;;;;;;;;;;5052387;28;20029;-52
2021/10/18 07:07:11;;;;;;;17.27;7.82;;;;;;;;;;5052701;28;20029;-52
2021/10/18 07:09:37;;;;;;;24.58;8.40;;;;;;;;;;5052952;28;20021;-52
2021/10/18 07:12:03;;;;;;;22.50;8.75;;;;;;;;;;5053001;28;20051;-52
2021/10/18 07:14:29;;;;;;;26.83;10.20;;;;;;;;;;5052449;28;20029;-52
2021/10/18 07:16:55;;;;;;;24.52;9.35;;;;;;;;;;5052671;28;20029;-52
2021/10/18 07:19:21;;;;;;;22.67;8.95;;;;;;;;;;5050764;28;20143;-52
2021/10/18 07:21:47;;;;;;;27.90;9.48;;;;;;;;;;5052541;28;20036;-52
2021/10/18 07:24:16;;;;;;;23.30;9.50;;;;;;;;;;5052027;28;20461;-52
2021/10/18 07:26:43;;;;;;;31.00;11.27;;;;;;;;;;5053017;28;20033;-52
2021/10/18 07:29:09;;;;;;;26.63;9.45;;;;;;;;;;5052998;28;20017;-52
2021/10/18 07:31:35;;;;;;;28.92;10.23;;;;;;;;;;5052237;28;20071;-52
2021/10/18 07:34:02;;;;;;;30.35;10.57;;;;;;;;;;5055339;28;20033;-53
2021/10/18 07:36:29;;;;;;;23.60;8.82;;;;;;;;;;5056463;28;20348;-53
2021/10/18 07:39:04;;;;;;;28.40;10.27;;;;;;;;;;5056746;28;20447;-52
2021/10/18 07:41:31;;;;;;;35.38;12.13;;;;;;;;;;5056843;28;20041;-52
2021/10/18 07:43:57;;;;;;;25.98;10.80;;;;;;;;;;5056041;28;20021;-52
2021/10/18 07:46:23;;;;;;;25.75;8.88;;;;;;;;;;5056252;28;20070;-52
2021/10/18 07:48:49;;;;;;;30.52;10.80;;;;;;;;;;5056703;28;20048;-52
2021/10/18 07:51:15;;;;;;;34.03;10.43;;;;;;;;;;5056623;28;20447;-52
2021/10/18 07:53:41;;;;;;;27.23;10.52;;;;;;;;;;5056044;28;20025;-52
2021/10/18 07:56:07;;;;;;;27.70;10.23;;;;;;;;;;5056604;28;20605;-53
2021/10/18 07:58:33;;;;;;;29.77;10.35;;;;;;;;;;5056763;28;20029;-52
2021/10/18 08:00:59;;;;;;;28.52;10.25;;;;;;;;;;5055924;28;20083;-52
2021/10/18 08:03:25;;;;;;;30.05;11.50;;;;;;;;;;5056700;28;20028;-52
2021/10/18 08:05:51;;;;;;;32.65;11.13;;;;;;;;;;5055738;28;20021;-52
2021/10/18 08:08:21;;;;;;;29.13;10.00;;;;;;;;;;5056182;28;20096;-52
2021/10/18 08:10:48;;;;;;;;;;;;;;;;;;5056827;28;20366;-52
2021/10/18 08:13:14;;;;;;;29.50;10.05;;;;;;;;;;5055666;28;19905;-52
2021/10/18 08:15:40;;;;;;;25.98;8.90;;;;;;;;;;5055670;28;20029;-53
2021/10/18 08:18:06;;;;;;;26.27;10.40;;;;;;;;;;5055691;28;20033;-52
2021/10/18 08:20:32;;;;;;;25.48;10.27;;;;;;;;;;5055130;28;20061;-52
2021/10/18 08:22:58;;;;;;;29.25;11.15;;;;;;;;;;5056181;28;20104;-53
2021/10/18 08:25:24;;;;;;;27.67;10.02;;;;;;;;;;5054885;28;20079;-52
2021/10/18 08:27:50;;;;;;;26.75;9.20;;;;;;;;;;5056160;28;20138;-52
2021/10/18 08:30:16;;;;;;;22.40;8.68;;;;;;;;;;5055787;28;20067;-53
2021/10/18 08:32:42;;;;;;;22.83;9.52;;;;;;;;;;5055641;28;20451;-53
2021/10/18 08:35:10;;;;;;;23.77;8.73;;;;;;;;;;5055560;28;20025;-53
2021/10/18 08:40:24;;;;;;;25.98;8.48;;;;;;;;;;5056017;28;20039;-52
2021/10/18 08:45:19;;;;;;;22.48;7.60;;;;;;;;;;5054354;28;20025;-52
2021/10/18 08:47:45;;;;;;;22.33;8.30;;;;;;;;;;5055511;28;20147;-52
2021/10/18 08:50:11;;;;;;;22.27;7.25;;;;;;;;;;5055648;28;20052;-52
2021/10/18 08:52:40;;;;;;;17.83;8.02;;;;;;;;;;5055142;28;20052;-52
2021/10/18 08:55:07;;;;;;;20.85;8.10;;;;;;;;;;5054554;28;20512;-52
2021/10/18 08:57:33;;;;;;;28.92;10.43;;;;;;;;;;5048112;28;20033;-51
2021/10/18 08:59:59;;;;;;;23.52;8.85;;;;;;;;;;5047183;28;20027;-52
2021/10/18 09:02:39;;;;;;;31.88;9.90;;;;;;;;;;5055251;28;20025;-52
2021/10/18 09:05:08;;;;;;;29.83;10.40;;;;;;;;;;5054066;28;20039;-52
2021/10/18 09:07:36;;;;;;;19.20;8.15;;;;;;;;;;5035664;28;20049;-52
2021/10/18 09:10:02;;;;;;;23.13;9.30;;;;;;;;;;5035286;28;20103;-52
2021/10/18 09:12:31;;;;;;;27.45;7.97;;;;;;;;;;5035446;28;20083;-52
2021/10/18 09:15:15;;;;;;;18.42;8.35;;;;;;;;;;5033981;28;20033;-52
2021/10/18 09:17:41;;;;;;;23.77;9.15;;;;;;;;;;5035226;28;20033;-52
2021/10/18 09:20:26;;;;;;;18.08;7.43;;;;;;;;;;5033609;28;20095;-53
2021/10/18 09:22:52;;;;;;;15.77;6.70;;;;;;;;;;5034924;28;20043;-52
2021/10/18 09:25:32;;;;;;;14.70;6.55;;;;;;;;;;5051005;28;20032;-52
2021/10/18 09:28:11;;;;;;;15.67;6.17;;;;;;;;;;5068367;28;20482;-52
2021/10/18 09:30:47;;;;;;;15.77;6.95;;;;;;;;;;5059642;28;20382;-52
2021/10/18 09:33:38;;;;;;;13.43;5.70;;;;;;;;;;5054748;28;20131;-52
2021/10/18 09:36:07;;;;;;;13.45;5.32;;;;;;;;;;5072997;28;20037;-53
2021/10/18 09:38:33;;;;;;;19.55;6.60;;;;;;;;;;5072505;28;20094;-52
2021/10/18 09:41:00;;;;;;;17.35;6.80;;;;;;;;;;5072908;28;20032;-53
2021/10/18 09:43:37;;;;;;;13.75;6.60;;;;;;;;;;5071916;28;20439;-52
2021/10/18 10:53:23;;;;;;;17.17;6.78;;;;;;;;;;5032923;28;20090;-52
2021/10/18 10:55:51;;;;;;;22.80;7.75;;;;;;;;;;5032693;28;20029;-52
2021/10/18 10:58:37;;;;;;;23.60;8.20;;;;;;;;;;5033351;28;20063;-52
2021/10/18 11:01:04;;;;;;;19.70;7.13;;;;;;;;;;5033242;28;20444;-52
2021/10/18 11:03:39;;;;;;;21.42;8.80;;;;;;;;;;5032515;28;20124;-52
2021/10/18 11:06:15;;;;;;;17.60;7.82;;;;;;;;;;5033221;28;20098;-52
2021/10/18 11:08:45;;;;;;;20.73;7.63;;;;;;;;;;5032387;28;20478;-52
2021/10/18 11:11:12;;;;;;;20.90;8.10;;;;;;;;;;5032129;28;20060;-52
2021/10/18 11:13:45;;;;;;;16.02;6.63;;;;;;;;;;5032074;28;20042;-52
2021/10/18 11:16:11;;;;;;;19.42;8.27;;;;;;;;;;5033077;28;20025;-52
2021/10/18 11:18:38;;;;;;;20.25;7.70;;;;;;;;;;5032863;28;20021;-52
2021/10/18 11:21:11;;;;;;;20.08;8.18;;;;;;;;;;5032616;28;20095;-52
2021/10/18 11:23:53;;;;;;;22.98;9.65;;;;;;;;;;5031803;28;20026;-52
2021/10/18 11:26:19;;;;;;;20.33;7.93;;;;;;;;;;5032886;28;20053;-52
2021/10/18 11:28:45;;;;;;;20.08;7.40;;;;;;;;;;5032505;28;20439;-52
2021/10/18 11:31:12;;;;;;;23.75;7.35;;;;;;;;;;5032842;28;20033;-52
2021/10/18 11:33:38;;;;;;;15.85;6.05;;;;;;;;;;5031815;28;20034;-52
2021/10/18 11:36:17;;;;;;;19.48;8.25;;;;;;;;;;5033046;28;20029;-52
2021/10/18 11:38:44;;;;;;;17.85;6.88;;;;;;;;;;5032299;28;20471;-52
2021/10/18 11:41:11;;;;;;;13.77;6.10;;;;;;;;;;5032880;28;20321;-52
2021/10/18 11:43:37;;;;;;;15.40;6.57;;;;;;;;;;5031968;28;20033;-52
2021/10/18 11:46:03;;;;;;;16.08;6.88;;;;;;;;;;5032290;28;20048;-52
2021/10/18 11:48:30;;;;;;;16.25;6.72;;;;;;;;;;5031981;28;20487;-52
2021/10/18 11:51:06;;;;;;;12.77;6.22;;;;;;;;;;5032893;28;20108;-52
2021/10/18 11:53:40;;;;;;;12.85;5.75;;;;;;;;;;5031949;28;20109;-52
2021/10/18 11:56:06;;;;;;;17.20;6.68;;;;;;;;;;5032400;28;20034;-52
2021/10/18 11:58:33;;;;;;;23.42;9.02;;;;;;;;;;5032897;28;20044;-52
2021/10/18 12:00:59;;;;;;;20.20;8.73;;;;;;;;;;5032544;28;20037;-52
2021/10/18 12:03:26;;;;;;;18.45;7.78;;;;;;;;;;5032459;28;20084;-52
2021/10/18 12:05:53;;;;;;;19.80;7.60;;;;;;;;;;5031985;28;20029;-52
2021/10/18 12:08:20;;;;;;;19.00;6.32;;;;;;;;;;5032510;28;20063;-52
2021/10/18 12:10:47;;;;;;;17.08;7.32;;;;;;;;;;5032172;28;20099;-52
2021/10/18 12:13:16;;;;;;;18.77;8.00;;;;;;;;;;5032779;28;20022;-52
2021/10/18 12:16:01;;;;;;;15.60;6.78;;;;;;;;;;5031561;28;20034;-52
2021/10/18 12:18:29;;;;;;;16.95;7.72;;;;;;;;;;5032433;28;20021;-52
2021/10/18 12:20:56;;;;;;;15.52;6.85;;;;;;;;;;5034536;28;20041;-52
2021/10/18 12:23:22;;;;;;;18.60;7.50;;;;;;;;;;5035911;28;20514;-53
2021/10/18 12:25:59;;;;;;;15.32;6.28;;;;;;;;;;5035526;28;20033;-52
2021/10/18 12:28:27;;;;;;;19.38;7.63;;;;;;;;;;5035845;28;20455;-52
2021/10/18 12:30:53;;;;;;;14.27;6.18;;;;;;;;;;5035674;28;20116;-52
2021/10/18 12:33:19;;;;;;;18.67;7.22;;;;;;;;;;5035716;28;20514;-52
2021/10/18 12:35:56;;;;;;;18.60;7.68;;;;;;;;;;5035160;28;20056;-52
2021/10/18 12:38:25;;;;;;;25.13;11.05;;;;;;;;;;5035985;28;20022;-51
2021/10/18 12:40:51;;;;;;;20.98;8.70;;;;;;;;;;5035544;28;20033;-52
2021/10/18 12:43:26;;;;;;;17.50;7.53;;;;;;;;;;5035655;28;20307;-52
2021/10/18 12:45:52;;;;;;;28.70;11.52;;;;;;;;;;5034929;28;20025;-52
2021/10/18 12:48:22;;;;;;;27.25;9.55;;;;;;;;;;5034669;28;20028;-52
2021/10/18 12:50:48;;;;;;;28.20;9.38;;;;;;;;;;5035498;28;20104;-52
2021/10/18 12:53:28;;;;;;;16.77;7.15;;;;;;;;;;5035708;28;20112;-52
2021/10/18 12:55:54;;;;;;;36.67;11.98;;;;;;;;;;5034976;28;20045;-52
2021/10/18 12:58:21;;;;;;;17.13;8.63;;;;;;;;;;5035841;28;20379;-52
2021/10/18 13:00:47;;;;;;;23.08;8.80;;;;;;;;;;5035487;28;20034;-52
2021/10/18 13:03:13;;;;;;;16.77;7.75;;;;;;;;;;5035379;28;20021;-52
2021/10/18 13:05:41;;;;;;;25.73;9.68;;;;;;;;;;5034262;28;20033;-52
2021/10/18 13:08:07;;;;;;;22.45;9.02;;;;;;;;;;5035358;28;20856;-52
2021/10/18 13:10:35;;;;;;;20.90;8.52;;;;;;;;;;5034733;28;20022;-52
2021/10/18 13:13:04;;;;;;;19.52;9.18;;;;;;;;;;5035564;28;20041;-52
2021/10/18 13:15:30;;;;;;;17.70;9.43;;;;;;;;;;5034339;28;20099;-52
2021/10/18 13:17:56;;;;;;;17.65;7.05;;;;;;;;;;5035314;28;20029;-52
2021/10/18 13:20:23;;;;;;;14.98;7.10;;;;;;;;;;5034175;28;20049;-52
2021/10/18 13:22:52;;;;;;;20.23;7.13;;;;;;;;;;5035158;28;20029;-52
2021/10/18 13:25:18;;;;;;;13.50;6.22;;;;;;;;;;5034006;28;20084;-52
2021/10/18 13:27:44;;;;;;;16.42;7.07;;;;;;;;;;5035213;28;20057;-52
2021/10/18 13:30:10;;;;;;;16.75;7.28;;;;;;;;;;5034426;28;20441;-52
2021/10/18 13:32:37;;;;;;;17.08;7.32;;;;;;;;;;5035141;28;20040;-52
2021/10/18 13:35:04;;;;;;;19.88;8.43;;;;;;;;;;5033809;28;20455;-52
2021/10/18 13:37:30;;;;;;;15.73;7.43;;;;;;;;;;5034740;28;20026;-52
2021/10/18 13:39:56;;;;;;;18.80;7.75;;;;;;;;;;5034812;28;20044;-52
2021/10/18 13:42:22;;;;;;;19.17;8.40;;;;;;;;;;5034783;28;20045;-52
2021/10/18 13:44:49;;;;;;;15.52;7.35;;;;;;;;;;5033976;28;20026;-52
2021/10/18 13:47:15;;;;;;;18.38;7.85;;;;;;;;;;5034466;28;20033;-52
2021/10/18 13:49:41;;;;;;;16.45;7.20;;;;;;;;;;5033359;28;20029;-52
2021/10/18 13:52:07;;;;;;;19.17;8.63;;;;;;;;;;5034398;28;20036;-52
2021/10/18 13:54:33;;;;;;;17.30;6.97;;;;;;;;;;5033900;28;20317;-52
2021/10/18 13:57:00;;;;;;;15.95;6.68;;;;;;;;;;5034162;28;20095;-52
2021/10/18 13:59:26;;;;;;;16.80;7.47;;;;;;;;;;5034260;28;20025;-52
2021/10/18 14:01:52;;;;;;;14.85;7.07;;;;;;;;;;5033894;28;20382;-52
2021/10/18 14:04:18;;;;;;;13.50;6.65;;;;;;;;;;5033592;28;20052;-51
2021/10/18 14:06:45;;;;;;;14.50;6.60;;;;;;;;;;5034401;28;20204;-52
2021/10/18 14:09:14;;;;;;;11.70;5.47;;;;;;;;;;5034280;28;20013;-52
2021/10/18 14:11:41;;;;;;;16.20;7.20;;;;;;;;;;5033860;28;20498;-52
2021/10/18 14:14:08;;;;;;;16.45;7.25;;;;;;;;;;5033629;28;20029;-52
2021/10/18 14:16:34;;;;;;;21.27;8.18;;;;;;;;;;5033987;28;20072;-52
2021/10/18 14:19:02;;;;;;;21.75;8.30;;;;;;;;;;5033824;28;20140;-52
2021/10/18 14:21:28;;;;;;;14.18;6.75;;;;;;;;;;5033633;28;20335;-53
2021/10/18 14:23:54;;;;;;;20.77;8.30;;;;;;;;;;5033005;28;20367;-52
2021/10/18 14:26:20;;;;;;;18.58;7.75;;;;;;;;;;5033574;28;20021;-52
2021/10/18 14:28:46;;;;;;;14.13;6.65;;;;;;;;;;5033771;28;20021;-52
2021/10/18 14:31:14;;;;;;;20.65;7.85;;;;;;;;;;5033565;28;20045;-52
2021/10/18 14:33:40;;;;;;;25.70;7.20;;;;;;;;;;5032812;28;20052;-52
2021/10/18 14:36:06;;;;;;;17.80;8.32;;;;;;;;;;5033556;28;20467;-52
2021/10/18 14:38:32;;;;;;;17.00;7.28;;;;;;;;;;5033989;28;20061;-52
2021/10/18 14:40:59;;;;;;;17.83;7.30;;;;;;;;;;5033126;28;20033;-52
2021/10/18 14:43:25;;;;;;;14.70;7.68;;;;;;;;;;5032904;28;20031;-52
2021/10/18 14:45:51;;;;;;;16.02;7.18;;;;;;;;;;5032734;28;20026;-52
2021/10/18 14:48:17;;;;;;;12.45;6.25;;;;;;;;;;5032430;28;20075;-52
2021/10/18 14:50:42;;;;;;;13.95;5.85;;;;;;;;;;5033225;28;20033;-52
2021/10/18 14:53:09;;;;;;;17.95;7.72;;;;;;;;;;5032950;28;20040;-52
2021/10/18 14:55:41;;;;;;;18.33;7.45;;;;;;;;;;5032287;28;20466;-52
2021/10/18 14:58:10;;;;;;;14.60;6.05;;;;;;;;;;5030978;28;20028;-52
2021/10/18 15:00:37;;;;;;;15.63;6.88;;;;;;;;;;5041290;28;20048;-52
2021/10/18 15:03:03;;;;;;;10.02;5.40;;;;;;;;;;5052889;28;20162;-52
2021/10/18 15:05:29;;;;;;;15.70;7.70;;;;;;;;;;5052334;28;20053;-52
2021/10/18 15:07:56;;;;;;;12.73;6.82;;;;;;;;;;5037584;28;20030;-52
2021/10/18 15:10:24;;;;;;;20.20;7.05;;;;;;;;;;5033430;28;20025;-52
2021/10/18 15:12:50;;;;;;;12.88;7.43;;;;;;;;;;5032946;28;20083;-52
2021/10/18 15:15:16;;;;;;;21.58;7.55;;;;;;;;;;5032662;28;20048;-52
2021/10/18 15:17:42;;;;;;;18.30;7.95;;;;;;;;;;5033040;28;20075;-52
2021/10/18 15:20:08;;;;;;;15.95;7.32;;;;;;;;;;5032600;28;20025;-52
2021/10/18 15:22:35;;;;;;;15.23;7.45;;;;;;;;;;5032366;28;20519;-53
2021/10/18 15:25:01;;;;;;;14.48;7.07;;;;;;;;;;5032120;28;20112;-54
2021/10/18 15:27:27;;;;;;;18.20;7.65;;;;;;;;;;5032751;28;20049;-54
2021/10/18 15:29:54;;;;;;;22.05;8.75;;;;;;;;;;5032680;28;20362;-54
2021/10/18 15:32:20;;;;;;;16.13;6.60;;;;;;;;;;5032790;28;20026;-53
2021/10/18 15:34:46;;;;;;;21.02;8.40;;;;;;;;;;5031949;28;20358;-52
2021/10/18 15:37:12;;;;;;;15.93;7.88;;;;;;;;;;5032798;28;20049;-52
2021/10/18 15:39:40;;;;;;;16.92;7.97;;;;;;;;;;5032844;28;20033;-52